sensor_id;sensor_type;location;lat;lon;timestamp;P1;durP1;ratioP1;P2;durP2;ratioP2
22490;SDS011;11412;50.802;4.350;2023-03-01T00:01:49;7.63;;;6.10;;
22490;SDS011;11412;50.802;4.350;2023-03-01T00:04:15;7.03;;;6.22;;
22490;SDS011;11412;50.802;4.350;2023-03-01T00:06:44;9.20;;;6.30;;
22490;SDS011;11412;50.802;4.350;2023-03-01T00:09:13;6.85;;;6.18;;
22490;SDS011;11412;50.802;4.350;2023-03-01T00:11:39;7.47;;;6.22;;
22490;SDS011;11412;50.802;4.350;2023-03-01T00:14:06;7.30;;;6.60;;
22490;SDS011;11412;50.802;4.350;2023-03-01T00:16:33;7.88;;;6.50;;
22490;SDS011;11412;50.802;4.350;2023-03-01T00:19:01;8.40;;;6.47;;
22490;SDS011;11412;50.802;4.350;2023-03-01T00:21:27;7.50;;;6.35;;
22490;SDS011;11412;50.802;4.350;2023-03-01T00:23:53;7.18;;;6.18;;
22490;SDS011;11412;50.802;4.350;2023-03-01T00:26:21;12.00;;;6.18;;
22490;SDS011;11412;50.802;4.350;2023-03-01T00:28:48;8.95;;;6.63;;
22490;SDS011;11412;50.802;4.350;2023-03-01T00:31:14;9.55;;;6.60;;
22490;SDS011;11412;50.802;4.350;2023-03-01T00:33:43;7.57;;;6.50;;
22490;SDS011;11412;50.802;4.350;2023-03-01T00:36:09;7.57;;;6.78;;
22490;SDS011;11412;50.802;4.350;2023-03-01T00:38:39;10.05;;;7.05;;
22490;SDS011;11412;50.802;4.350;2023-03-01T00:41:07;7.68;;;6.80;;
22490;SDS011;11412;50.802;4.350;2023-03-01T00:43:34;9.15;;;7.00;;
22490;SDS011;11412;50.802;4.350;2023-03-01T00:46:03;8.48;;;7.10;;
22490;SDS011;11412;50.802;4.350;2023-03-01T00:48:31;9.30;;;6.13;;
22490;SDS011;11412;50.802;4.350;2023-03-01T00:50:57;7.53;;;6.80;;
22490;SDS011;11412;50.802;4.350;2023-03-01T00:53:34;7.25;;;6.55;;
22490;SDS011;11412;50.802;4.350;2023-03-01T00:56:01;8.93;;;6.72;;
22490;SDS011;11412;50.802;4.350;2023-03-01T00:58:28;8.25;;;6.80;;
22490;SDS011;11412;50.802;4.350;2023-03-01T01:00:53;9.15;;;7.25;;
22490;SDS011;11412;50.802;4.350;2023-03-01T01:03:19;7.85;;;7.10;;
22490;SDS011;11412;50.802;4.350;2023-03-01T01:05:46;7.82;;;6.63;;
22490;SDS011;11412;50.802;4.350;2023-03-01T01:08:11;7.38;;;6.68;;
22490;SDS011;11412;50.802;4.350;2023-03-01T01:10:37;7.45;;;6.18;;
22490;SDS011;11412;50.802;4.350;2023-03-01T01:13:03;7.10;;;6.40;;
22490;SDS011;11412;50.802;4.350;2023-03-01T01:15:29;7.70;;;6.90;;
22490;SDS011;11412;50.802;4.350;2023-03-01T01:17:58;7.10;;;6.40;;
22490;SDS011;11412;50.802;4.350;2023-03-01T01:20:24;8.20;;;6.75;;
22490;SDS011;11412;50.802;4.350;2023-03-01T01:22:49;8.38;;;6.47;;
22490;SDS011;11412;50.802;4.350;2023-03-01T01:25:16;7.38;;;6.63;;
22490;SDS011;11412;50.802;4.350;2023-03-01T01:27:42;8.57;;;6.63;;
22490;SDS011;11412;50.802;4.350;2023-03-01T01:30:08;7.53;;;6.15;;
22490;SDS011;11412;50.802;4.350;2023-03-01T01:32:34;7.47;;;6.75;;
22490;SDS011;11412;50.802;4.350;2023-03-01T01:35:00;10.13;;;6.90;;
22490;SDS011;11412;50.802;4.350;2023-03-01T01:37:25;6.95;;;6.15;;
22490;SDS011;11412;50.802;4.350;2023-03-01T01:39:59;7.40;;;6.25;;
22490;SDS011;11412;50.802;4.350;2023-03-01T01:42:25;7.35;;;6.10;;
22490;SDS011;11412;50.802;4.350;2023-03-01T01:47:55;7.88;;;6.05;;
22490;SDS011;11412;50.802;4.350;2023-03-01T01:50:25;7.45;;;6.45;;
22490;SDS011;11412;50.802;4.350;2023-03-01T01:52:51;7.63;;;6.70;;
22490;SDS011;11412;50.802;4.350;2023-03-01T01:55:19;8.38;;;7.03;;
22490;SDS011;11412;50.802;4.350;2023-03-01T01:57:49;9.90;;;6.45;;
22490;SDS011;11412;50.802;4.350;2023-03-01T02:00:22;8.70;;;6.47;;
22490;SDS011;11412;50.802;4.350;2023-03-01T02:02:50;7.45;;;6.35;;
22490;SDS011;11412;50.802;4.350;2023-03-01T02:08:01;8.32;;;6.00;;
22490;SDS011;11412;50.802;4.350;2023-03-01T02:10:27;6.45;;;5.85;;
22490;SDS011;11412;50.802;4.350;2023-03-01T02:12:54;6.82;;;6.10;;
22490;SDS011;11412;50.802;4.350;2023-03-01T02:15:21;6.68;;;5.80;;
22490;SDS011;11412;50.802;4.350;2023-03-01T02:17:48;9.15;;;6.40;;
22490;SDS011;11412;50.802;4.350;2023-03-01T02:20:16;8.23;;;7.07;;
22490;SDS011;11412;50.802;4.350;2023-03-01T02:22:44;7.20;;;6.18;;
22490;SDS011;11412;50.802;4.350;2023-03-01T02:30:40;8.57;;;7.18;;
22490;SDS011;11412;50.802;4.350;2023-03-01T02:33:27;7.13;;;6.43;;
22490;SDS011;11412;50.802;4.350;2023-03-01T02:35:57;9.15;;;6.50;;
22490;SDS011;11412;50.802;4.350;2023-03-01T02:38:25;8.50;;;6.63;;
22490;SDS011;11412;50.802;4.350;2023-03-01T02:40:51;9.30;;;6.65;;
22490;SDS011;11412;50.802;4.350;2023-03-01T02:43:19;7.43;;;6.55;;
22490;SDS011;11412;50.802;4.350;2023-03-01T02:45:51;7.43;;;6.50;;
22490;SDS011;11412;50.802;4.350;2023-03-01T02:48:18;7.82;;;6.00;;
22490;SDS011;11412;50.802;4.350;2023-03-01T02:53:56;7.88;;;6.88;;
22490;SDS011;11412;50.802;4.350;2023-03-01T02:56:40;7.47;;;6.50;;
22490;SDS011;11412;50.802;4.350;2023-03-01T02:59:08;8.75;;;7.20;;
22490;SDS011;11412;50.802;4.350;2023-03-01T03:01:34;12.25;;;6.72;;
22490;SDS011;11412;50.802;4.350;2023-03-01T03:04:04;7.40;;;6.45;;
22490;SDS011;11412;50.802;4.350;2023-03-01T03:06:31;9.43;;;6.90;;
22490;SDS011;11412;50.802;4.350;2023-03-01T03:08:57;7.30;;;6.50;;
22490;SDS011;11412;50.802;4.350;2023-03-01T03:11:23;7.55;;;6.75;;
22490;SDS011;11412;50.802;4.350;2023-03-01T03:13:49;7.82;;;7.03;;
22490;SDS011;11412;50.802;4.350;2023-03-01T03:16:14;11.57;;;6.63;;
22490;SDS011;11412;50.802;4.350;2023-03-01T03:18:40;9.80;;;6.97;;
22490;SDS011;11412;50.802;4.350;2023-03-01T03:21:09;9.35;;;6.65;;
22490;SDS011;11412;50.802;4.350;2023-03-01T03:23:37;7.43;;;6.70;;
22490;SDS011;11412;50.802;4.350;2023-03-01T03:26:03;7.93;;;6.47;;
22490;SDS011;11412;50.802;4.350;2023-03-01T03:28:30;9.30;;;6.85;;
22490;SDS011;11412;50.802;4.350;2023-03-01T03:30:56;7.53;;;6.53;;
22490;SDS011;11412;50.802;4.350;2023-03-01T03:33:23;8.93;;;7.15;;
22490;SDS011;11412;50.802;4.350;2023-03-01T03:35:49;7.85;;;7.15;;
22490;SDS011;11412;50.802;4.350;2023-03-01T03:38:17;7.63;;;6.68;;
22490;SDS011;11412;50.802;4.350;2023-03-01T03:40:46;7.82;;;7.07;;
22490;SDS011;11412;50.802;4.350;2023-03-01T03:43:18;8.05;;;6.95;;
22490;SDS011;11412;50.802;4.350;2023-03-01T03:45:46;7.63;;;6.82;;
22490;SDS011;11412;50.802;4.350;2023-03-01T03:48:16;8.15;;;6.88;;
22490;SDS011;11412;50.802;4.350;2023-03-01T03:50:46;9.70;;;6.82;;
22490;SDS011;11412;50.802;4.350;2023-03-01T03:53:13;7.80;;;7.10;;
22490;SDS011;11412;50.802;4.350;2023-03-01T03:55:39;8.35;;;7.32;;
22490;SDS011;11412;50.802;4.350;2023-03-01T03:58:05;7.75;;;6.95;;
22490;SDS011;11412;50.802;4.350;2023-03-01T04:00:33;8.38;;;7.47;;
22490;SDS011;11412;50.802;4.350;2023-03-01T04:03:01;7.78;;;7.05;;
22490;SDS011;11412;50.802;4.350;2023-03-01T04:05:27;10.68;;;7.20;;
22490;SDS011;11412;50.802;4.350;2023-03-01T04:07:53;7.80;;;6.80;;
22490;SDS011;11412;50.802;4.350;2023-03-01T04:10:26;7.50;;;6.75;;
22490;SDS011;11412;50.802;4.350;2023-03-01T04:12:57;10.52;;;6.78;;
22490;SDS011;11412;50.802;4.350;2023-03-01T04:15:23;7.72;;;6.47;;
22490;SDS011;11412;50.802;4.350;2023-03-01T04:17:50;8.05;;;6.80;;
22490;SDS011;11412;50.802;4.350;2023-03-01T04:20:18;8.23;;;6.80;;
22490;SDS011;11412;50.802;4.350;2023-03-01T04:22:53;9.45;;;6.47;;
22490;SDS011;11412;50.802;4.350;2023-03-01T04:25:39;5.07;;;4.68;;
22490;SDS011;11412;50.802;4.350;2023-03-01T04:28:06;9.18;;;7.07;;
22490;SDS011;11412;50.802;4.350;2023-03-01T04:30:32;8.60;;;7.13;;
22490;SDS011;11412;50.802;4.350;2023-03-01T04:33:01;7.45;;;6.70;;
22490;SDS011;11412;50.802;4.350;2023-03-01T04:35:28;9.10;;;7.35;;
22490;SDS011;11412;50.802;4.350;2023-03-01T04:37:55;8.43;;;6.93;;
22490;SDS011;11412;50.802;4.350;2023-03-01T04:40:20;7.75;;;6.93;;
22490;SDS011;11412;50.802;4.350;2023-03-01T04:42:46;10.70;;;7.35;;
22490;SDS011;11412;50.802;4.350;2023-03-01T04:45:12;8.00;;;7.20;;
22490;SDS011;11412;50.802;4.350;2023-03-01T04:47:41;7.90;;;7.10;;
22490;SDS011;11412;50.802;4.350;2023-03-01T04:50:10;9.63;;;7.57;;
22490;SDS011;11412;50.802;4.350;2023-03-01T04:52:37;9.38;;;7.35;;
22490;SDS011;11412;50.802;4.350;2023-03-01T04:55:03;7.80;;;7.00;;
22490;SDS011;11412;50.802;4.350;2023-03-01T04:57:30;7.70;;;6.57;;
22490;SDS011;11412;50.802;4.350;2023-03-01T04:59:57;8.35;;;7.15;;
22490;SDS011;11412;50.802;4.350;2023-03-01T05:02:22;8.50;;;7.60;;
22490;SDS011;11412;50.802;4.350;2023-03-01T05:04:48;9.65;;;7.28;;
22490;SDS011;11412;50.802;4.350;2023-03-01T05:07:14;8.48;;;6.82;;
22490;SDS011;11412;50.802;4.350;2023-03-01T05:09:44;8.23;;;7.28;;
22490;SDS011;11412;50.802;4.350;2023-03-01T05:12:11;9.40;;;7.55;;
22490;SDS011;11412;50.802;4.350;2023-03-01T05:14:37;9.15;;;7.32;;
22490;SDS011;11412;50.802;4.350;2023-03-01T05:17:03;8.68;;;7.28;;
22490;SDS011;11412;50.802;4.350;2023-03-01T05:19:29;10.25;;;7.53;;
22490;SDS011;11412;50.802;4.350;2023-03-01T05:21:56;12.32;;;7.38;;
22490;SDS011;11412;50.802;4.350;2023-03-01T05:24:31;8.90;;;7.13;;
22490;SDS011;11412;50.802;4.350;2023-03-01T05:26:59;9.40;;;7.25;;
22490;SDS011;11412;50.802;4.350;2023-03-01T05:29:25;8.27;;;7.45;;
22490;SDS011;11412;50.802;4.350;2023-03-01T05:31:54;10.10;;;7.85;;
22490;SDS011;11412;50.802;4.350;2023-03-01T05:34:26;9.05;;;7.15;;
22490;SDS011;11412;50.802;4.350;2023-03-01T05:36:53;8.27;;;7.28;;
22490;SDS011;11412;50.802;4.350;2023-03-01T05:39:20;8.60;;;7.43;;
22490;SDS011;11412;50.802;4.350;2023-03-01T05:41:47;8.68;;;7.25;;
22490;SDS011;11412;50.802;4.350;2023-03-01T05:44:13;10.82;;;7.63;;
22490;SDS011;11412;50.802;4.350;2023-03-01T05:46:39;8.10;;;6.78;;
22490;SDS011;11412;50.802;4.350;2023-03-01T05:49:04;9.05;;;7.78;;
22490;SDS011;11412;50.802;4.350;2023-03-01T05:51:30;12.52;;;7.43;;
22490;SDS011;11412;50.802;4.350;2023-03-01T05:53:56;7.95;;;7.15;;
22490;SDS011;11412;50.802;4.350;2023-03-01T05:56:21;7.88;;;7.07;;
22490;SDS011;11412;50.802;4.350;2023-03-01T05:58:50;10.43;;;8.10;;
22490;SDS011;11412;50.802;4.350;2023-03-01T06:01:16;10.00;;;7.28;;
22490;SDS011;11412;50.802;4.350;2023-03-01T06:03:41;8.38;;;7.15;;
22490;SDS011;11412;50.802;4.350;2023-03-01T06:06:07;9.50;;;7.75;;
22490;SDS011;11412;50.802;4.350;2023-03-01T06:08:33;9.80;;;7.53;;
22490;SDS011;11412;50.802;4.350;2023-03-01T06:10:58;8.95;;;7.72;;
22490;SDS011;11412;50.802;4.350;2023-03-01T06:13:24;10.50;;;7.15;;
22490;SDS011;11412;50.802;4.350;2023-03-01T06:15:50;10.90;;;8.00;;
22490;SDS011;11412;50.802;4.350;2023-03-01T06:18:16;11.80;;;7.65;;
22490;SDS011;11412;50.802;4.350;2023-03-01T06:20:42;8.65;;;7.75;;
22490;SDS011;11412;50.802;4.350;2023-03-01T06:23:07;8.70;;;7.32;;
22490;SDS011;11412;50.802;4.350;2023-03-01T06:25:34;9.43;;;7.93;;
22490;SDS011;11412;50.802;4.350;2023-03-01T06:27:59;9.05;;;7.65;;
22490;SDS011;11412;50.802;4.350;2023-03-01T06:30:26;8.75;;;7.18;;
22490;SDS011;11412;50.802;4.350;2023-03-01T06:32:51;9.10;;;7.93;;
22490;SDS011;11412;50.802;4.350;2023-03-01T06:35:18;10.50;;;7.82;;
22490;SDS011;11412;50.802;4.350;2023-03-01T06:37:44;10.98;;;8.32;;
22490;SDS011;11412;50.802;4.350;2023-03-01T06:40:11;10.50;;;8.05;;
22490;SDS011;11412;50.802;4.350;2023-03-01T06:42:39;10.00;;;8.25;;
22490;SDS011;11412;50.802;4.350;2023-03-01T06:45:07;11.02;;;7.63;;
22490;SDS011;11412;50.802;4.350;2023-03-01T06:47:34;8.23;;;7.43;;
22490;SDS011;11412;50.802;4.350;2023-03-01T06:50:00;8.80;;;7.88;;
22490;SDS011;11412;50.802;4.350;2023-03-01T06:52:26;9.75;;;7.75;;
22490;SDS011;11412;50.802;4.350;2023-03-01T06:54:52;9.73;;;7.80;;
22490;SDS011;11412;50.802;4.350;2023-03-01T06:57:18;11.43;;;7.95;;
22490;SDS011;11412;50.802;4.350;2023-03-01T06:59:43;11.13;;;7.57;;
22490;SDS011;11412;50.802;4.350;2023-03-01T07:02:10;10.23;;;7.25;;
22490;SDS011;11412;50.802;4.350;2023-03-01T07:04:36;9.10;;;7.60;;
22490;SDS011;11412;50.802;4.350;2023-03-01T07:07:03;9.50;;;7.53;;
22490;SDS011;11412;50.802;4.350;2023-03-01T07:09:28;9.50;;;7.43;;
22490;SDS011;11412;50.802;4.350;2023-03-01T07:11:54;11.40;;;8.52;;
22490;SDS011;11412;50.802;4.350;2023-03-01T07:14:21;10.77;;;7.93;;
22490;SDS011;11412;50.802;4.350;2023-03-01T07:16:46;11.05;;;7.63;;
22490;SDS011;11412;50.802;4.350;2023-03-01T07:19:12;13.50;;;7.65;;
22490;SDS011;11412;50.802;4.350;2023-03-01T07:21:38;9.23;;;7.93;;
22490;SDS011;11412;50.802;4.350;2023-03-01T07:24:05;12.45;;;8.18;;
22490;SDS011;11412;50.802;4.350;2023-03-01T07:26:32;9.38;;;7.65;;
22490;SDS011;11412;50.802;4.350;2023-03-01T07:29:02;8.82;;;7.93;;
22490;SDS011;11412;50.802;4.350;2023-03-01T07:31:28;8.82;;;7.93;;
22490;SDS011;11412;50.802;4.350;2023-03-01T07:33:54;11.07;;;7.72;;
22490;SDS011;11412;50.802;4.350;2023-03-01T07:36:20;9.90;;;8.10;;
22490;SDS011;11412;50.802;4.350;2023-03-01T07:38:46;9.27;;;8.27;;
22490;SDS011;11412;50.802;4.350;2023-03-01T07:41:11;12.43;;;8.77;;
22490;SDS011;11412;50.802;4.350;2023-03-01T07:43:37;11.25;;;7.88;;
22490;SDS011;11412;50.802;4.350;2023-03-01T07:46:03;9.40;;;8.32;;
22490;SDS011;11412;50.802;4.350;2023-03-01T07:48:29;9.63;;;8.23;;
22490;SDS011;11412;50.802;4.350;2023-03-01T07:51:03;11.15;;;8.45;;
22490;SDS011;11412;50.802;4.350;2023-03-01T07:53:31;9.95;;;8.15;;
22490;SDS011;11412;50.802;4.350;2023-03-01T07:56:06;10.18;;;8.30;;
22490;SDS011;11412;50.802;4.350;2023-03-01T07:58:36;10.43;;;8.35;;
22490;SDS011;11412;50.802;4.350;2023-03-01T08:01:05;12.73;;;8.35;;
22490;SDS011;11412;50.802;4.350;2023-03-01T08:03:32;11.48;;;8.80;;
22490;SDS011;11412;50.802;4.350;2023-03-01T08:06:02;9.27;;;7.90;;
22490;SDS011;11412;50.802;4.350;2023-03-01T08:08:28;11.18;;;8.00;;
22490;SDS011;11412;50.802;4.350;2023-03-01T08:10:57;10.52;;;8.05;;
22490;SDS011;11412;50.802;4.350;2023-03-01T08:13:24;9.88;;;8.43;;
22490;SDS011;11412;50.802;4.350;2023-03-01T08:15:50;11.90;;;8.55;;
22490;SDS011;11412;50.802;4.350;2023-03-01T08:18:16;10.55;;;8.60;;
22490;SDS011;11412;50.802;4.350;2023-03-01T08:20:43;9.48;;;7.78;;
22490;SDS011;11412;50.802;4.350;2023-03-01T08:23:09;13.70;;;7.82;;
22490;SDS011;11412;50.802;4.350;2023-03-01T08:25:35;10.32;;;7.88;;
22490;SDS011;11412;50.802;4.350;2023-03-01T08:28:00;14.50;;;7.40;;
22490;SDS011;11412;50.802;4.350;2023-03-01T08:30:26;12.77;;;8.40;;
22490;SDS011;11412;50.802;4.350;2023-03-01T08:32:52;10.55;;;7.55;;
22490;SDS011;11412;50.802;4.350;2023-03-01T08:35:18;9.65;;;7.25;;
22490;SDS011;11412;50.802;4.350;2023-03-01T08:37:44;12.63;;;7.72;;
22490;SDS011;11412;50.802;4.350;2023-03-01T08:40:10;10.07;;;7.60;;
22490;SDS011;11412;50.802;4.350;2023-03-01T08:42:38;13.38;;;7.32;;
22490;SDS011;11412;50.802;4.350;2023-03-01T08:45:04;11.18;;;7.30;;
22490;SDS011;11412;50.802;4.350;2023-03-01T08:47:30;11.07;;;7.28;;
22490;SDS011;11412;50.802;4.350;2023-03-01T08:49:58;9.05;;;6.18;;
22490;SDS011;11412;50.802;4.350;2023-03-01T08:52:24;11.57;;;7.10;;
22490;SDS011;11412;50.802;4.350;2023-03-01T08:54:51;8.38;;;6.72;;
22490;SDS011;11412;50.802;4.350;2023-03-01T08:57:16;9.48;;;6.60;;
22490;SDS011;11412;50.802;4.350;2023-03-01T08:59:42;12.43;;;6.35;;
22490;SDS011;11412;50.802;4.350;2023-03-01T09:02:10;10.10;;;6.80;;
22490;SDS011;11412;50.802;4.350;2023-03-01T09:04:38;10.00;;;7.78;;
22490;SDS011;11412;50.802;4.350;2023-03-01T09:07:03;9.15;;;6.60;;
22490;SDS011;11412;50.802;4.350;2023-03-01T09:09:29;10.05;;;7.07;;
22490;SDS011;11412;50.802;4.350;2023-03-01T09:11:55;11.18;;;7.05;;
22490;SDS011;11412;50.802;4.350;2023-03-01T09:14:20;9.77;;;7.10;;
22490;SDS011;11412;50.802;4.350;2023-03-01T09:16:46;9.85;;;7.00;;
22490;SDS011;11412;50.802;4.350;2023-03-01T09:19:12;9.15;;;7.18;;
22490;SDS011;11412;50.802;4.350;2023-03-01T09:21:38;14.43;;;7.60;;
22490;SDS011;11412;50.802;4.350;2023-03-01T09:24:04;10.43;;;7.47;;
22490;SDS011;11412;50.802;4.350;2023-03-01T09:26:31;10.15;;;7.72;;
22490;SDS011;11412;50.802;4.350;2023-03-01T09:28:57;13.98;;;7.85;;
22490;SDS011;11412;50.802;4.350;2023-03-01T09:31:23;10.60;;;8.07;;
22490;SDS011;11412;50.802;4.350;2023-03-01T09:33:50;8.68;;;7.40;;
22490;SDS011;11412;50.802;4.350;2023-03-01T09:36:19;10.68;;;7.65;;
22490;SDS011;11412;50.802;4.350;2023-03-01T09:38:47;11.55;;;7.35;;
22490;SDS011;11412;50.802;4.350;2023-03-01T09:46:52;12.00;;;8.13;;
22490;SDS011;11412;50.802;4.350;2023-03-01T09:49:19;10.95;;;7.75;;
22490;SDS011;11412;50.802;4.350;2023-03-01T09:52:12;8.68;;;7.82;;
22490;SDS011;11412;50.802;4.350;2023-03-01T09:54:49;9.48;;;7.95;;
22490;SDS011;11412;50.802;4.350;2023-03-01T10:05:26;10.50;;;7.82;;
22490;SDS011;11412;50.802;4.350;2023-03-01T10:08:01;10.40;;;8.88;;
22490;SDS011;11412;50.802;4.350;2023-03-01T10:10:44;11.02;;;8.50;;
22490;SDS011;11412;50.802;4.350;2023-03-01T10:13:16;13.07;;;8.25;;
22490;SDS011;11412;50.802;4.350;2023-03-01T10:18:46;9.95;;;8.50;;
22490;SDS011;11412;50.802;4.350;2023-03-01T10:21:18;12.25;;;9.32;;
22490;SDS011;11412;50.802;4.350;2023-03-01T10:23:45;11.68;;;8.63;;
22490;SDS011;11412;50.802;4.350;2023-03-01T10:29:31;10.77;;;8.48;;
22490;SDS011;11412;50.802;4.350;2023-03-01T10:32:19;11.30;;;8.75;;
22490;SDS011;11412;50.802;4.350;2023-03-01T10:34:47;10.20;;;7.80;;
22490;SDS011;11412;50.802;4.350;2023-03-01T10:37:17;11.23;;;8.43;;
22490;SDS011;11412;50.802;4.350;2023-03-01T10:42:48;9.73;;;8.57;;
22490;SDS011;11412;50.802;4.350;2023-03-01T10:48:03;10.55;;;8.05;;
22490;SDS011;11412;50.802;4.350;2023-03-01T10:50:31;13.07;;;8.38;;
22490;SDS011;11412;50.802;4.350;2023-03-01T10:52:58;9.80;;;7.97;;
22490;SDS011;11412;50.802;4.350;2023-03-01T10:55:38;11.10;;;7.82;;
22490;SDS011;11412;50.802;4.350;2023-03-01T11:03:22;11.90;;;8.00;;
22490;SDS011;11412;50.802;4.350;2023-03-01T11:05:57;9.63;;;7.70;;
22490;SDS011;11412;50.802;4.350;2023-03-01T11:08:35;10.30;;;8.07;;
22490;SDS011;11412;50.802;4.350;2023-03-01T11:13:36;10.82;;;8.57;;
22490;SDS011;11412;50.802;4.350;2023-03-01T11:16:12;11.02;;;8.23;;
22490;SDS011;11412;50.802;4.350;2023-03-01T11:18:38;9.52;;;8.20;;
22490;SDS011;11412;50.802;4.350;2023-03-01T11:21:04;13.02;;;8.57;;
22490;SDS011;11412;50.802;4.350;2023-03-01T11:23:33;8.40;;;7.50;;
22490;SDS011;11412;50.802;4.350;2023-03-01T11:26:02;9.75;;;7.68;;
22490;SDS011;11412;50.802;4.350;2023-03-01T11:28:33;11.77;;;8.13;;
22490;SDS011;11412;50.802;4.350;2023-03-01T11:31:05;13.90;;;7.88;;
22490;SDS011;11412;50.802;4.350;2023-03-01T11:36:15;9.75;;;7.32;;
22490;SDS011;11412;50.802;4.350;2023-03-01T11:38:51;10.73;;;8.18;;
22490;SDS011;11412;50.802;4.350;2023-03-01T11:41:20;10.32;;;7.53;;
22490;SDS011;11412;50.802;4.350;2023-03-01T12:00:53;11.88;;;7.95;;
22490;SDS011;11412;50.802;4.350;2023-03-01T12:14:58;8.73;;;7.30;;
22490;SDS011;11412;50.802;4.350;2023-03-01T12:20:14;9.33;;;7.43;;
22490;SDS011;11412;50.802;4.350;2023-03-01T12:25:41;7.60;;;6.80;;
22490;SDS011;11412;50.802;4.350;2023-03-01T12:28:21;7.90;;;6.93;;
22490;SDS011;11412;50.802;4.350;2023-03-01T12:42:04;9.90;;;6.97;;
22490;SDS011;11412;50.802;4.350;2023-03-01T12:55:36;7.78;;;6.82;;
22490;SDS011;11412;50.802;4.350;2023-03-01T12:58:20;9.10;;;7.10;;
22490;SDS011;11412;50.802;4.350;2023-03-01T13:06:58;9.50;;;6.60;;
22490;SDS011;11412;50.802;4.350;2023-03-01T13:09:29;9.35;;;6.90;;
22490;SDS011;11412;50.802;4.350;2023-03-01T13:11:56;8.98;;;6.70;;
22490;SDS011;11412;50.802;4.350;2023-03-01T13:16:53;8.45;;;6.50;;
22490;SDS011;11412;50.802;4.350;2023-03-01T13:21:46;10.63;;;7.35;;
22490;SDS011;11412;50.802;4.350;2023-03-01T13:34:49;8.38;;;6.68;;
22490;SDS011;11412;50.802;4.350;2023-03-01T13:37:20;7.38;;;6.22;;
22490;SDS011;11412;50.802;4.350;2023-03-01T13:39:51;10.20;;;6.80;;
22490;SDS011;11412;50.802;4.350;2023-03-01T13:42:37;7.00;;;6.18;;
22490;SDS011;11412;50.802;4.350;2023-03-01T13:45:15;9.63;;;6.55;;
22490;SDS011;11412;50.802;4.350;2023-03-01T13:47:49;10.52;;;6.70;;
22490;SDS011;11412;50.802;4.350;2023-03-01T13:50:21;10.85;;;6.82;;
22490;SDS011;11412;50.802;4.350;2023-03-01T13:53:03;9.77;;;6.90;;
22490;SDS011;11412;50.802;4.350;2023-03-01T14:01:00;11.57;;;7.45;;
22490;SDS011;11412;50.802;4.350;2023-03-01T14:03:31;9.93;;;6.75;;
22490;SDS011;11412;50.802;4.350;2023-03-01T14:08:36;9.70;;;6.70;;
22490;SDS011;11412;50.802;4.350;2023-03-01T14:13:47;7.80;;;6.97;;
22490;SDS011;11412;50.802;4.350;2023-03-01T14:19:29;9.45;;;6.60;;
22490;SDS011;11412;50.802;4.350;2023-03-01T14:22:00;9.15;;;6.05;;
22490;SDS011;11412;50.802;4.350;2023-03-01T14:25:34;8.70;;;6.65;;
22490;SDS011;11412;50.802;4.350;2023-03-01T14:33:21;8.38;;;6.38;;
22490;SDS011;11412;50.802;4.350;2023-03-01T14:35:53;9.25;;;7.03;;
22490;SDS011;11412;50.802;4.350;2023-03-01T14:38:29;13.73;;;7.13;;
22490;SDS011;11412;50.802;4.350;2023-03-01T14:41:00;8.13;;;6.75;;
22490;SDS011;11412;50.802;4.350;2023-03-01T14:43:32;8.50;;;7.50;;
22490;SDS011;11412;50.802;4.350;2023-03-01T14:45:58;12.65;;;6.32;;
22490;SDS011;11412;50.802;4.350;2023-03-01T14:48:24;8.52;;;6.55;;
22490;SDS011;11412;50.802;4.350;2023-03-01T14:50:51;8.85;;;6.75;;
22490;SDS011;11412;50.802;4.350;2023-03-01T14:53:19;7.80;;;6.93;;
22490;SDS011;11412;50.802;4.350;2023-03-01T14:55:46;7.68;;;6.50;;
22490;SDS011;11412;50.802;4.350;2023-03-01T14:58:25;7.30;;;6.50;;
22490;SDS011;11412;50.802;4.350;2023-03-01T15:00:52;9.52;;;7.30;;
22490;SDS011;11412;50.802;4.350;2023-03-01T15:03:41;8.90;;;7.45;;
22490;SDS011;11412;50.802;4.350;2023-03-01T15:06:12;10.95;;;7.10;;
22490;SDS011;11412;50.802;4.350;2023-03-01T15:08:42;10.68;;;7.30;;
22490;SDS011;11412;50.802;4.350;2023-03-01T15:11:27;12.18;;;7.00;;
22490;SDS011;11412;50.802;4.350;2023-03-01T15:13:55;9.05;;;7.25;;
22490;SDS011;11412;50.802;4.350;2023-03-01T15:16:39;9.27;;;7.25;;
22490;SDS011;11412;50.802;4.350;2023-03-01T15:19:15;7.95;;;7.05;;
22490;SDS011;11412;50.802;4.350;2023-03-01T15:21:43;10.35;;;7.25;;
22490;SDS011;11412;50.802;4.350;2023-03-01T15:26:45;7.50;;;6.53;;
22490;SDS011;11412;50.802;4.350;2023-03-01T15:29:21;11.23;;;6.53;;
22490;SDS011;11412;50.802;4.350;2023-03-01T15:32:02;9.50;;;6.80;;
22490;SDS011;11412;50.802;4.350;2023-03-01T15:34:31;7.90;;;6.68;;
22490;SDS011;11412;50.802;4.350;2023-03-01T15:37:03;9.65;;;6.72;;
22490;SDS011;11412;50.802;4.350;2023-03-01T15:42:05;8.52;;;6.68;;
22490;SDS011;11412;50.802;4.350;2023-03-01T15:45:06;9.07;;;7.28;;
22490;SDS011;11412;50.802;4.350;2023-03-01T15:47:46;10.80;;;7.57;;
22490;SDS011;11412;50.802;4.350;2023-03-01T15:50:20;9.13;;;7.35;;
22490;SDS011;11412;50.802;4.350;2023-03-01T15:52:54;12.68;;;7.88;;
22490;SDS011;11412;50.802;4.350;2023-03-01T15:55:24;8.00;;;7.20;;
22490;SDS011;11412;50.802;4.350;2023-03-01T15:58:03;9.15;;;7.20;;
22490;SDS011;11412;50.802;4.350;2023-03-01T16:00:37;11.48;;;7.57;;
22490;SDS011;11412;50.802;4.350;2023-03-01T16:03:04;12.40;;;6.90;;
22490;SDS011;11412;50.802;4.350;2023-03-01T16:05:34;9.95;;;7.07;;
22490;SDS011;11412;50.802;4.350;2023-03-01T16:08:01;10.00;;;6.85;;
22490;SDS011;11412;50.802;4.350;2023-03-01T16:10:28;9.25;;;6.53;;
22490;SDS011;11412;50.802;4.350;2023-03-01T16:12:55;8.00;;;6.50;;
22490;SDS011;11412;50.802;4.350;2023-03-01T16:15:25;7.80;;;7.00;;
22490;SDS011;11412;50.802;4.350;2023-03-01T16:17:52;9.45;;;7.03;;
22490;SDS011;11412;50.802;4.350;2023-03-01T16:20:18;7.40;;;6.40;;
22490;SDS011;11412;50.802;4.350;2023-03-01T16:22:44;8.50;;;7.03;;
22490;SDS011;11412;50.802;4.350;2023-03-01T16:25:15;9.65;;;7.07;;
22490;SDS011;11412;50.802;4.350;2023-03-01T16:27:43;9.50;;;6.47;;
22490;SDS011;11412;50.802;4.350;2023-03-01T16:30:11;9.80;;;7.07;;
22490;SDS011;11412;50.802;4.350;2023-03-01T16:32:38;8.52;;;6.82;;
22490;SDS011;11412;50.802;4.350;2023-03-01T16:35:05;10.27;;;7.03;;
22490;SDS011;11412;50.802;4.350;2023-03-01T16:37:32;9.55;;;6.35;;
22490;SDS011;11412;50.802;4.350;2023-03-01T16:39:59;10.05;;;6.00;;
22490;SDS011;11412;50.802;4.350;2023-03-01T16:42:25;9.43;;;6.30;;
22490;SDS011;11412;50.802;4.350;2023-03-01T16:44:57;8.60;;;5.95;;
22490;SDS011;11412;50.802;4.350;2023-03-01T16:47:22;8.25;;;6.38;;
22490;SDS011;11412;50.802;4.350;2023-03-01T16:49:51;10.40;;;6.07;;
22490;SDS011;11412;50.802;4.350;2023-03-01T16:52:17;6.78;;;5.97;;
22490;SDS011;11412;50.802;4.350;2023-03-01T16:54:44;7.30;;;6.20;;
22490;SDS011;11412;50.802;4.350;2023-03-01T16:57:09;8.43;;;5.95;;
22490;SDS011;11412;50.802;4.350;2023-03-01T16:59:35;6.75;;;5.38;;
22490;SDS011;11412;50.802;4.350;2023-03-01T17:02:02;8.30;;;6.10;;
22490;SDS011;11412;50.802;4.350;2023-03-01T17:04:28;7.72;;;5.75;;
22490;SDS011;11412;50.802;4.350;2023-03-01T17:06:54;8.07;;;5.85;;
22490;SDS011;11412;50.802;4.350;2023-03-01T17:09:20;8.15;;;5.93;;
22490;SDS011;11412;50.802;4.350;2023-03-01T17:11:47;7.88;;;5.90;;
22490;SDS011;11412;50.802;4.350;2023-03-01T17:14:13;6.85;;;6.03;;
22490;SDS011;11412;50.802;4.350;2023-03-01T17:16:41;9.20;;;6.05;;
22490;SDS011;11412;50.802;4.350;2023-03-01T17:19:07;8.38;;;6.03;;
22490;SDS011;11412;50.802;4.350;2023-03-01T17:21:33;8.63;;;6.28;;
22490;SDS011;11412;50.802;4.350;2023-03-01T17:23:59;9.00;;;5.75;;
22490;SDS011;11412;50.802;4.350;2023-03-01T17:26:24;12.50;;;6.22;;